Time;durP1;ratioP1;P1;durP2;ratioP2;P2;SDS_P1;SDS_P2;PMS_P1;PMS_P2;Temp;Humidity;BMP_temperature;BMP_pressure;BME280_temperature;BME280_humidity;BME280_pressure;Samples;Min_cycle;Max_cycle;Signal;HPM_P1;HPM_P2
2022/08/20 00:02:19;;;;;;;7.55;3.65;;;;;;;29.90;58.79;100582.59;5074671;28;70056;-33
2022/08/20 00:04:52;;;;;;;3.80;3.50;;;;;;;29.91;63.28;100573.41;5063952;28;66374;-34
2022/08/20 00:07:25;;;;;;;14.68;4.53;;;;;;;30.05;65.58;100588.47;5081479;27;70644;-33
2022/08/20 00:09:57;;;;;;;16.67;6.47;;;;;;;30.00;69.42;100583.72;5082768;27;66703;-32
2022/08/20 00:12:30;;;;;;;7.43;6.32;;;;;;;30.22;71.95;100605.81;5082264;28;70524;-32
2022/08/20 00:15:05;;;;;;;16.05;6.72;;;;;;;29.80;72.49;100529.81;5063423;28;66829;-34
2022/08/20 00:17:39;;;;;;;7.47;6.32;;;;;;;30.36;74.25;100630.06;5064978;27;70235;-32
2022/08/20 00:20:13;;;;;;;11.80;6.68;;;;;;;30.42;75.13;100640.00;5081592;28;66889;-32
2022/08/20 00:22:46;;;;;;;11.77;6.40;;;;;;;30.41;75.23;100630.22;5064121;28;70737;-32
2022/08/20 00:25:19;;;;;;;8.10;6.53;;;;;;;30.53;76.00;100651.97;5082250;28;66696;-31
2022/08/20 00:27:52;;;;;;;8.65;6.65;;;;;;;30.41;76.02;100630.22;5062732;28;70510;-31
2022/08/20 00:30:26;;;;;;;18.70;6.88;;;;;;;29.89;75.38;100545.78;5080620;27;66393;-30
2022/08/20 00:33:03;;;;;;;8.77;6.65;;;;;;;30.59;75.87;100661.88;5081490;28;70901;-32
2022/08/20 00:35:40;;;;;;;7.90;6.22;;;;;;;30.65;76.16;100671.84;5081079;28;66378;-31
2022/08/20 00:38:13;;;;;;;19.08;6.50;;;;;;;30.66;75.40;100668.06;5081257;28;70183;-32
2022/08/20 00:40:55;;;;;;;7.47;6.72;;;;;;;30.22;76.14;100597.72;5082848;27;66712;-31
2022/08/20 00:43:36;;;;;;;8.85;6.88;;;;;;;30.68;76.51;100685.75;5097755;27;69895;-32
2022/08/20 00:46:13;;;;;;;10.45;8.00;;;;;;;30.68;76.17;100687.66;5066340;27;66864;-31
2022/08/20 00:48:49;;;;;;;19.20;7.95;;;;;;;30.65;76.40;100688.91;5083831;27;70840;-32
2022/08/20 00:51:44;;;;;;;13.45;7.85;;;;;;;30.18;76.63;100612.72;5088893;27;67511;-31
2022/08/20 00:54:25;;;;;;;21.95;8.05;;;;;;;30.63;77.49;100696.44;5064737;27;69512;-31
2022/08/20 00:57:18;;;;;;;18.95;7.78;;;;;;;30.53;77.46;100677.16;5050385;27;66734;-31
2022/08/20 00:59:52;;;;;;;15.20;9.05;;;;;;;30.63;77.96;100704.53;5090705;27;70288;-31
2022/08/20 01:02:28;;;;;;;19.00;8.68;;;;;;;30.68;77.78;100704.72;5045806;28;65976;-32
2022/08/20 01:05:01;;;;;;;15.50;9.25;;;;;;;30.69;77.79;100695.53;5088686;27;70884;-32
2022/08/20 01:07:35;;;;;;;13.90;8.20;;;;;;;30.67;78.00;100692.25;5097819;27;67263;-32
2022/08/20 01:10:13;;;;;;;15.10;8.45;;;;;;;30.71;78.07;100696.13;5084709;27;70609;-31
2022/08/20 01:12:52;;;;;;;10.13;6.97;;;;;;;30.72;77.54;100703.19;5092654;27;66812;-32
2022/08/20 01:15:31;;;;;;;12.10;7.80;;;;;;;30.73;78.00;100685.91;5077868;27;70718;-33
2022/08/20 01:18:04;;;;;;;15.32;8.10;;;;;;;30.69;78.08;100690.09;5084064;27;66472;-32
2022/08/20 01:20:46;;;;;;;12.85;7.70;;;;;;;30.72;78.39;100684.25;5065347;27;70887;-32
2022/08/20 01:23:33;;;;;;;16.50;7.15;;;;;;;30.79;78.19;100700.44;5091501;27;66923;-32
2022/08/20 01:26:09;;;;;;;14.93;7.55;;;;;;;30.81;78.16;100692.09;5085045;27;71555;-33
2022/08/20 01:28:47;;;;;;;10.45;6.40;;;;;;;30.81;78.46;100687.50;5077643;27;67011;-32
2022/08/20 01:31:23;;;;;;;9.35;6.28;;;;;;;30.73;77.54;100672.38;5081822;27;71402;-33
2022/08/20 01:33:58;;;;;;;20.48;6.90;;;;;;;30.46;77.51;100627.69;5091244;27;66722;-32
2022/08/20 01:36:47;;;;;;;9.93;6.70;;;;;;;30.91;77.19;100692.44;5052301;28;71231;-33
2022/08/20 01:39:26;;;;;;;10.32;6.43;;;;;;;30.96;77.02;100684.47;5084111;27;66416;-33
2022/08/20 01:42:25;;;;;;;11.07;6.85;;;;;;;30.89;77.38;100689.09;5081704;27;70594;-33
2022/08/20 01:44:58;;;;;;;8.88;7.68;;;;;;;30.95;76.45;100680.06;5079576;27;66423;-32
2022/08/20 01:47:34;;;;;;;8.82;7.97;;;;;;;30.03;77.15;100522.97;5096902;27;70961;-32
2022/08/20 01:50:21;;;;;;;11.63;7.15;;;;;;;30.75;76.08;100636.94;5094801;27;66730;-33
2022/08/20 01:53:25;;;;;;;14.20;7.22;;;;;;;31.01;76.64;100687.31;5098777;27;70713;-33
2022/08/20 01:55:57;;;;;;;14.60;6.97;;;;;;;31.06;76.10;100684.75;5080710;27;66960;-32
2022/08/20 01:58:32;;;;;;;11.02;6.43;;;;;;;31.09;76.00;100695.16;5096990;27;70985;-32
2022/08/20 02:01:05;;;;;;;10.32;6.80;;;;;;;31.07;75.82;100681.00;5098726;27;66468;-32
2022/08/20 02:03:41;;;;;;;16.17;6.82;;;;;;;31.08;76.34;100688.06;5094829;27;69955;-32
2022/08/20 02:06:15;;;;;;;8.90;6.00;;;;;;;31.08;76.00;100693.47;5085017;27;66038;-32
2022/08/20 02:08:47;;;;;;;9.35;5.70;;;;;;;31.09;76.00;100695.16;5075271;27;71356;-32
2022/08/20 02:11:20;;;;;;;9.55;6.15;;;;;;;31.06;75.77;100690.16;5086112;27;66699;-33
2022/08/20 02:13:53;;;;;;;6.20;5.57;;;;;;;31.06;75.79;100684.75;5088696;27;69957;-33
2022/08/20 02:16:30;;;;;;;6.55;5.35;;;;;;;31.07;75.79;100691.84;5084540;27;66874;-32
2022/08/20 02:19:15;;;;;;;17.02;5.15;;;;;;;31.05;75.16;100693.94;5077664;27;70655;-33
2022/08/20 02:21:58;;;;;;;7.35;5.15;;;;;;;31.09;75.43;100689.72;5074907;27;67167;-33
2022/08/20 02:24:30;;;;;;;6.00;5.40;;;;;;;31.08;75.49;100682.63;5056739;27;70612;-33
2022/08/20 02:27:03;;;;;;;7.13;5.32;;;;;;;31.11;75.73;100692.19;5094628;27;66841;-32
2022/08/20 02:29:36;;;;;;;10.70;5.53;;;;;;;31.14;75.63;100689.84;5088564;27;70815;-32
2022/08/20 02:32:08;;;;;;;7.53;4.95;;;;;;;31.12;75.42;100689.28;5087884;27;67371;-32
2022/08/20 02:35:04;;;;;;;6.05;5.07;;;;;;;30.20;74.54;100528.59;5070590;27;70664;-32
2022/08/20 02:37:38;;;;;;;7.38;4.47;;;;;;;31.17;74.85;100688.56;5086942;27;67024;-33
2022/08/20 02:40:15;;;;;;;8.30;4.60;;;;;;;30.26;74.61;100536.72;5085690;27;70541;-33
2022/08/20 02:43:01;;;;;;;8.63;4.68;;;;;;;31.24;74.42;100683.09;5083371;27;67340;-32
2022/08/20 02:45:42;;;;;;;7.43;4.35;;;;;;;31.29;74.14;100683.25;5054213;27;71024;-32
2022/08/20 02:48:21;;;;;;;10.43;4.63;;;;;;;30.76;73.44;100589.03;5084458;27;65406;-33
2022/08/20 02:51:00;;;;;;;8.40;4.57;;;;;;;30.78;74.49;100589.63;5086167;27;71848;-32
2022/08/20 02:53:36;;;;;;;4.93;3.67;;;;;;;31.27;74.68;100669.09;5065709;27;66179;-34
2022/08/20 02:56:10;;;;;;;5.38;4.40;;;;;;;31.33;74.62;100668.16;5083992;27;70311;-32
2022/08/20 02:58:43;;;;;;;4.10;3.25;;;;;;;31.34;74.20;100664.38;5083655;27;66415;-34
2022/08/20 03:01:17;;;;;;;3.70;3.40;;;;;;;31.39;74.10;100672.69;5079881;27;70816;-33
2022/08/20 03:03:50;;;;;;;4.82;3.75;;;;;;;30.81;74.27;100556.72;5059912;28;67173;-33
2022/08/20 03:06:22;;;;;;;4.05;3.63;;;;;;;31.44;73.85;100664.72;5078762;28;70854;-35
2022/08/20 03:08:55;;;;;;;3.88;3.50;;;;;;;31.43;73.88;100645.97;5055137;28;66899;-33
2022/08/20 03:11:28;;;;;;;5.68;3.17;;;;;;;31.50;74.25;100652.13;5077042;28;71236;-33
2022/08/20 03:14:00;;;;;;;4.97;3.90;;;;;;;31.54;73.56;100648.72;5075788;28;66648;-33
2022/08/20 03:16:33;;;;;;;4.68;3.30;;;;;;;31.54;73.29;100648.72;5078380;28;71644;-32
2022/08/20 03:19:07;;;;;;;6.45;3.85;;;;;;;31.53;73.84;100640.81;5079218;28;66119;-34
2022/08/20 03:21:40;;;;;;;6.25;3.13;;;;;;;31.55;73.55;100628.69;5079270;28;70587;-34
2022/08/20 03:24:12;;;;;;;5.85;3.03;;;;;;;31.54;73.35;100637.88;5078535;27;66591;-33
2022/08/20 03:26:45;;;;;;;3.17;2.88;;;;;;;31.58;72.88;100628.22;5061547;28;71195;-35
2022/08/20 03:29:17;;;;;;;4.22;2.75;;;;;;;31.46;70.93;100640.91;5077990;28;66676;-33
2022/08/20 03:31:50;;;;;;;2.95;2.65;;;;;;;31.29;68.61;100629.03;5080730;27;70681;-33
2022/08/20 03:34:22;;;;;;;5.22;2.00;;;;;;;31.31;68.40;100626.91;5080486;28;66717;-34
2022/08/20 03:36:55;;;;;;;2.70;2.47;;;;;;;31.24;67.19;100626.19;5081975;28;71075;-33
2022/08/20 03:39:28;;;;;;;2.80;2.33;;;;;;;31.20;65.98;100624.97;5081922;28;67562;-33
2022/08/20 03:42:01;;;;;;;2.67;2.30;;;;;;;31.15;64.73;100618.38;5080001;28;70982;-35
2022/08/20 03:44:35;;;;;;;3.15;2.33;;;;;;;31.13;63.66;100614.22;5081824;27;66851;-34
2022/08/20 03:47:08;;;;;;;2.05;1.90;;;;;;;31.05;62.78;100601.00;5081836;28;70394;-33
2022/08/20 03:49:45;;;;;;;2.30;1.90;;;;;;;31.03;62.27;100609.34;5081524;28;66729;-33
2022/08/20 03:52:18;;;;;;;3.45;2.17;;;;;;;30.96;61.70;100608.63;5064772;28;70832;-32
2022/08/20 03:54:51;;;;;;;3.50;2.30;;;;;;;30.81;60.97;100589.22;5082122;28;67137;-33
2022/08/20 03:57:24;;;;;;;3.10;1.88;;;;;;;30.60;60.80;100577.75;5081419;28;70666;-35
2022/08/20 03:59:56;;;;;;;7.03;2.20;;;;;;;30.75;60.38;100600.91;5083407;27;66961;-37
2022/08/20 04:02:29;;;;;;;2.55;2.10;;;;;;;30.58;60.38;100582.56;5059188;28;70342;-35
2022/08/20 04:05:03;;;;;;;1.80;1.70;;;;;;;30.66;59.39;100594.97;5080566;28;66528;-33
2022/08/20 04:07:36;;;;;;;2.42;1.85;;;;;;;30.68;59.18;100599.13;5082745;28;70429;-33
2022/08/20 04:10:11;;;;;;;4.07;1.70;;;;;;;30.73;58.48;100599.28;5082848;27;67009;-33
2022/08/20 04:12:44;;;;;;;5.30;1.63;;;;;;;30.76;58.23;100587.16;5082748;27;70923;-34
2022/08/20 04:15:23;;;;;;;6.30;1.60;;;;;;;30.79;56.99;100591.31;5075502;28;66650;-33
2022/08/20 04:17:56;;;;;;;2.63;1.60;;;;;;;30.81;56.58;100578.38;5081522;28;71562;-33
2022/08/20 04:20:28;;;;;;;6.43;1.73;;;;;;;30.86;55.88;100576.63;5081582;28;66335;-33
2022/08/20 04:23:02;;;;;;;2.22;1.48;;;;;;;30.90;55.00;100566.19;5063129;28;70630;-34
2022/08/20 04:25:39;;;;;;;1.80;1.55;;;;;;;30.45;54.67;100477.16;5081892;28;66790;-34
2022/08/20 04:28:29;;;;;;;3.63;1.52;;;;;;;30.41;53.78;100476.78;5062973;28;71120;-35
2022/08/20 04:31:01;;;;;;;2.72;1.70;;;;;;;30.48;54.10;100492.97;5063700;28;66974;-34
2022/08/20 04:33:34;;;;;;;1.75;1.38;;;;;;;30.94;53.14;100562.78;5064430;28;70605;-34
2022/08/20 04:36:06;;;;;;;3.38;1.50;;;;;;;30.96;53.96;100561.75;5079334;27;66034;-33
2022/08/20 04:38:39;;;;;;;2.70;2.20;;;;;;;31.00;53.45;100560.22;5081554;28;70746;-34
2022/08/20 04:41:21;;;;;;;7.23;1.70;;;;;;;31.00;53.13;100561.03;5080350;28;67060;-35
2022/08/20 04:43:55;;;;;;;2.22;2.00;;;;;;;31.03;53.06;100554.34;5079077;28;70549;-33
2022/08/20 04:46:31;;;;;;;3.85;1.95;;;;;;;30.95;52.35;100536.53;5082091;28;66520;-33
2022/08/20 04:49:05;;;;;;;6.85;2.17;;;;;;;31.04;52.89;100542.47;5079779;28;70560;-32
2022/08/20 04:51:37;;;;;;;2.83;2.50;;;;;;;30.97;52.36;100529.00;5076884;28;66861;-34
2022/08/20 04:54:10;;;;;;;10.15;2.40;;;;;;;31.06;53.01;100527.63;5083117;27;70880;-33
2022/08/20 04:56:43;;;;;;;2.72;2.53;;;;;;;31.04;52.08;100518.09;5078383;27;66896;-35
2022/08/20 04:59:15;;;;;;;6.75;2.60;;;;;;;31.04;52.22;100513.50;5082107;28;70822;-34
2022/08/20 05:01:48;;;;;;;2.97;2.72;;;;;;;30.96;51.79;100489.44;5081174;28;67010;-33
2022/08/20 05:04:20;;;;;;;5.22;3.00;;;;;;;30.91;52.09;100465.75;5082038;27;71219;-34
2022/08/20 05:06:53;;;;;;;3.53;2.70;;;;;;;31.02;51.44;100471.44;5082273;28;67231;-35
2022/08/20 05:09:26;;;;;;;3.67;2.90;;;;;;;31.11;51.72;100476.28;5079644;27;70659;-34
2022/08/20 05:11:58;;;;;;;2.88;2.67;;;;;;;31.09;51.46;100467.56;5082482;28;67032;-35
2022/08/20 05:14:31;;;;;;;6.72;3.25;;;;;;;31.11;52.14;100457.31;5080163;27;70436;-34
2022/08/20 05:17:05;;;;;;;2.78;2.58;;;;;;;31.12;51.17;100445.44;5081414;27;67110;-33
2022/08/20 05:19:40;;;;;;;2.75;2.55;;;;;;;31.07;50.56;100437.19;5081333;28;70566;-32
2022/08/20 05:22:13;;;;;;;4.70;3.50;;;;;;;31.09;54.92;100434.22;5077481;28;67243;-33
2022/08/20 05:24:45;;;;;;;3.53;3.15;;;;;;;31.14;54.02;100440.59;5081062;28;70198;-32
2022/08/20 05:27:22;;;;;;;6.80;3.47;;;;;;;31.16;52.83;100424.94;5062223;28;66614;-33
2022/08/20 05:30:07;;;;;;;4.10;3.20;;;;;;;30.58;51.70;100338.94;5061659;28;70914;-34
2022/08/20 05:32:44;;;;;;;4.53;3.38;;;;;;;31.15;51.65;100401.63;5079803;27;66964;-34
2022/08/20 05:35:17;;;;;;;3.30;3.00;;;;;;;31.11;50.47;100400.41;5079647;27;71037;-32
2022/08/20 05:37:50;;;;;;;3.65;3.35;;;;;;;31.04;49.82;100394.31;5080682;27;65929;-32
2022/08/20 05:40:23;;;;;;;3.40;3.10;;;;;;;31.07;50.01;100388.41;5080959;28;71171;-33
2022/08/20 05:42:56;;;;;;;3.42;3.22;;;;;;;31.08;48.96;100384.63;5070564;28;67002;-33
2022/08/20 05:45:29;;;;;;;3.35;3.15;;;;;;;31.05;48.83;100374.28;5079684;27;70205;-32
2022/08/20 05:48:19;;;;;;;3.45;3.22;;;;;;;31.05;48.04;100363.44;5081394;28;66665;-33
2022/08/20 05:50:53;;;;;;;3.78;3.47;;;;;;;31.06;48.34;100365.06;5079546;28;71294;-33
2022/08/20 05:53:26;;;;;;;3.67;3.47;;;;;;;31.05;49.20;100346.38;5078455;27;67015;-32
2022/08/20 05:56:00;;;;;;;4.35;4.00;;;;;;;31.12;49.58;100352.47;5077504;28;71514;-32
2022/08/20 05:58:32;;;;;;;4.88;4.07;;;;;;;31.03;49.47;100330.34;5078653;28;66650;-32
2022/08/20 06:01:05;;;;;;;16.08;4.53;;;;;;;31.15;50.66;100347.44;5080810;27;70825;-32
2022/08/20 06:06:29;;;;;;;4.93;4.63;;;;;;;31.19;54.65;100330.72;5078327;27;70011;-33
2022/08/20 06:09:19;;;;;;;5.30;4.90;;;;;;;31.23;53.35;100323.75;5076266;27;67083;-35
2022/08/20 06:12:06;;;;;;;5.10;4.68;;;;;;;30.71;52.71;100235.03;5078650;28;70718;-33
2022/08/20 06:14:39;;;;;;;5.25;4.85;;;;;;;31.27;52.35;100316.81;5076817;27;66579;-31
2022/08/20 06:17:14;;;;;;;5.07;4.68;;;;;;;31.05;51.82;100276.75;5078775;28;70145;-32
2022/08/20 06:19:47;;;;;;;4.97;4.68;;;;;;;31.27;51.25;100314.91;5077290;27;67395;-33
2022/08/20 06:22:20;;;;;;;10.98;5.07;;;;;;;31.28;51.31;100324.69;5077608;28;70205;-33
2022/08/20 06:24:58;;;;;;;5.93;5.43;;;;;;;31.29;50.73;100341.78;5076398;28;66589;-32
2022/08/20 06:27:30;;;;;;;6.10;5.57;;;;;;;31.29;50.55;100348.03;5078957;27;70707;-33
2022/08/20 06:30:07;;;;;;;6.63;5.70;;;;;;;30.73;50.21;100238.34;5079354;27;66554;-33
2022/08/20 06:32:41;;;;;;;8.00;6.65;;;;;;;31.27;50.21;100327.66;5076225;28;71058;-34
2022/08/20 06:35:14;;;;;;;7.03;6.43;;;;;;;31.24;49.92;100334.34;5078633;27;66466;-33
2022/08/20 06:37:51;;;;;;;13.52;6.22;;;;;;;31.10;49.78;100317.50;5077560;27;69779;-33
2022/08/20 06:40:27;;;;;;;7.13;6.53;;;;;;;31.19;49.83;100334.22;5079089;28;65490;-34
2022/08/20 06:43:00;;;;;;;6.55;6.15;;;;;;;31.18;49.27;100332.59;5078537;28;70820;-36
2022/08/20 06:45:33;;;;;;;7.35;6.85;;;;;;;31.17;49.63;100345.31;5060800;28;67085;-35
2022/08/20 06:48:12;;;;;;;7.32;6.75;;;;;;;30.20;49.18;100183.19;5079863;28;70013;-34
2022/08/20 06:50:46;;;;;;;7.88;7.28;;;;;;;31.15;49.77;100324.94;5078227;28;66397;-35
2022/08/20 06:53:20;;;;;;;7.57;6.97;;;;;;;30.47;49.52;100209.81;5063353;28;69849;-34
2022/08/20 06:55:57;;;;;;;8.43;7.50;;;;;;;31.12;49.16;100318.09;5078916;28;66084;-33
2022/08/20 06:58:31;;;;;;;8.57;7.63;;;;;;;31.06;48.94;100305.47;5078866;28;70959;-35
2022/08/20 07:01:10;;;;;;;9.02;8.07;;;;;;;30.97;48.81;100289.84;5080072;28;66471;-34
2022/08/20 07:03:43;;;;;;;7.45;6.95;;;;;;;31.09;48.16;100310.47;5077538;28;69743;-34
2022/08/20 07:06:25;;;;;;;7.95;7.30;;;;;;;31.08;48.53;100292.53;5082463;27;66957;-34
2022/08/20 07:08:58;;;;;;;9.18;7.85;;;;;;;31.05;47.97;100279.47;5057540;28;70606;-34
2022/08/20 07:11:31;;;;;;;8.23;7.63;;;;;;;31.06;48.14;100262.13;5080860;28;66205;-34
2022/08/20 07:14:04;;;;;;;9.95;7.40;;;;;;;31.09;48.76;100260.84;5081989;27;70907;-35
2022/08/20 07:16:36;;;;;;;8.40;7.80;;;;;;;31.04;49.13;100253.44;5079570;28;67187;-33
2022/08/20 07:19:10;;;;;;;10.73;8.55;;;;;;;31.11;51.09;100264.97;5070754;28;70571;-34
2022/08/20 07:21:43;;;;;;;10.90;10.10;;;;;;;31.14;53.05;100279.94;5081748;28;65695;-33
2022/08/20 07:24:15;;;;;;;10.00;9.20;;;;;;;31.11;51.82;100291.25;5081904;28;69944;-33
2022/08/20 07:26:50;;;;;;;10.15;9.35;;;;;;;30.96;50.77;100272.75;5079820;28;66673;-34
2022/08/20 07:32:33;;;;;;;11.07;10.02;;;;;;;31.10;50.09;100300.44;5082107;28;71131;-34
2022/08/20 07:32:33;;;;;;;;;;;;;;;30.68;50.11;100303.19;5083069;27;66688;-33
2022/08/20 07:35:13;;;;;;;10.70;9.90;;;;;;;30.44;50.48;100196.75;5063908;28;70023;-34
2022/08/20 07:37:50;;;;;;;14.68;10.60;;;;;;;31.01;51.00;100294.56;5063357;28;66822;-36
2022/08/20 07:40:33;;;;;;;10.82;9.95;;;;;;;30.00;49.80;100136.69;5080138;28;70340;-34
2022/08/20 07:43:06;;;;;;;12.45;11.02;;;;;;;30.92;49.83;100274.28;5080982;28;67063;-33
2022/08/20 07:45:39;;;;;;;11.82;10.73;;;;;;;30.94;49.43;100285.69;5083771;28;70374;-33
2022/08/20 07:48:18;;;;;;;12.27;11.07;;;;;;;30.80;48.70;100268.03;5082299;28;65989;-35
2022/08/20 07:51:03;;;;;;;15.38;11.02;;;;;;;29.98;48.35;100146.94;5063533;28;70192;-33
2022/08/20 07:53:38;;;;;;;13.70;11.10;;;;;;;30.58;48.96;100255.03;5082857;28;67262;-33
2022/08/20 07:56:15;;;;;;;13.63;10.15;;;;;;;30.37;49.25;100223.94;5064512;28;70609;-33
2022/08/20 07:58:51;;;;;;;15.25;10.25;;;;;;;30.90;50.56;100314.34;5081406;28;66103;-36
2022/08/20 08:01:29;;;;;;;14.82;10.93;;;;;;;31.04;51.63;100314.94;5078370;28;70741;-34
2022/08/20 08:04:01;;;;;;;11.50;10.50;;;;;;;31.12;52.62;100315.41;5080861;28;67063;-35
2022/08/20 08:06:34;;;;;;;12.30;10.25;;;;;;;31.26;53.14;100307.84;5081650;28;70489;-34
2022/08/20 08:09:13;;;;;;;12.68;11.10;;;;;;;31.38;53.98;100318.72;5082616;28;66980;-34
2022/08/20 08:11:49;;;;;;;14.15;12.60;;;;;;;31.45;57.85;100346.50;5081903;28;70040;-33
2022/08/20 08:14:25;;;;;;;16.20;12.98;;;;;;;31.01;60.57;100248.50;5081164;28;66149;-35
2022/08/20 08:17:01;;;;;;;22.30;13.43;;;;;;;31.26;59.54;100264.50;5077904;27;70912;-33
2022/08/20 08:19:41;;;;;;;14.63;13.00;;;;;;;31.38;59.07;100237.41;5080780;28;66215;-33
2022/08/20 08:22:15;;;;;;;15.05;12.88;;;;;;;31.53;57.90;100226.88;5082001;27;70881;-34
2022/08/20 08:24:48;;;;;;;16.65;11.70;;;;;;;32.15;58.74;100304.03;5054294;28;66682;-32
2022/08/20 08:27:32;;;;;;;18.33;13.48;;;;;;;32.16;58.96;100298.38;5082048;28;70600;-32
2022/08/20 08:30:05;;;;;;;15.75;13.00;;;;;;;32.36;59.06;100303.34;5081408;27;66994;-34
2022/08/20 08:33:26;;;;;;;13.85;12.55;;;;;;;32.44;59.39;100302.94;5083794;27;71306;-33
2022/08/20 08:35:36;;;;;;;15.15;13.75;;;;;;;32.25;62.80;100277.06;5051267;27;66352;-34
2022/08/20 08:38:12;;;;;;;15.07;13.60;;;;;;;32.21;64.58;100278.66;5077822;28;71358;-33
2022/08/20 08:40:45;;;;;;;15.60;13.80;;;;;;;32.15;65.15;100285.03;5079709;28;67299;-33
2022/08/20 08:43:26;;;;;;;19.27;13.20;;;;;;;31.61;65.85;100229.19;5082239;28;71242;-33
2022/08/20 08:46:08;;;;;;;15.60;12.40;;;;;;;32.08;66.59;100336.72;5082082;28;66189;-33
2022/08/20 08:48:44;;;;;;;14.23;12.90;;;;;;;32.12;66.46;100342.50;5080767;28;70549;-34
2022/08/20 08:51:26;;;;;;;16.65;13.32;;;;;;;31.53;67.89;100261.28;5076906;28;66648;-33
2022/08/20 08:54:00;;;;;;;15.07;13.30;;;;;;;31.92;68.74;100322.03;5081350;28;71453;-32
2022/08/20 08:56:37;;;;;;;14.75;13.32;;;;;;;32.00;68.79;100342.53;5081473;28;66356;-33
2022/08/20 08:59:10;;;;;;;13.32;11.88;;;;;;;31.92;68.79;100329.34;5081580;27;70334;-33
2022/08/20 09:01:49;;;;;;;14.10;12.30;;;;;;;31.88;69.13;100318.13;5080984;28;66891;-32
2022/08/20 09:04:36;;;;;;;13.95;12.50;;;;;;;32.01;69.16;100350.44;5079264;28;71047;-32
2022/08/20 09:07:13;;;;;;;;;;;;;;;31.70;70.56;100329.16;5081436;28;66309;-33
2022/08/20 09:09:59;;;;;;;;;;;;;;;31.67;71.56;100333.16;5076367;28;71284;-34
2022/08/20 09:12:38;;;;;;;;;;;;;;;31.66;71.50;100338.84;5079430;28;66109;-32
2022/08/20 09:15:17;;;;;;;;;;;;;;;31.67;71.62;100330.44;5076809;28;71107;-34
2022/08/20 09:18:00;;;;;;;;;;;;;;;31.69;71.87;100332.94;5078309;28;67200;-33
2022/08/20 09:20:34;;;;;;;;;;;;;;;31.72;71.67;100340.59;5003873;28;71035;-32
2022/08/20 09:23:06;;;;;;;;;;;;;;;31.73;72.08;100344.94;5015037;28;66909;-32
2022/08/20 09:25:38;;;;;;;;;;;;;;;31.76;72.74;100347.16;5014575;28;70237;-33
2022/08/20 09:28:11;;;;;;;;;;;;;;;31.76;72.38;100349.88;5013563;28;66613;-35
2022/08/20 09:30:43;;;;;;;;;;;;;;;31.75;72.24;100356.38;5016768;28;70201;-35
2022/08/20 09:33:16;;;;;;;;;;;;;;;31.75;72.28;100361.78;5015880;28;66931;-33
2022/08/20 09:35:48;;;;;;;;;;;;;;;31.73;72.24;100370.19;5013130;28;70142;-33
2022/08/20 09:38:20;;;;;;;;;;;;;;;31.72;71.88;100386.69;5012184;28;66228;-32
2022/08/20 09:40:52;;;;;;;;;;;;;;;31.73;73.34;100393.75;5009314;28;70169;-33
2022/08/20 09:43:25;;;;;;;;;;;;;;;31.73;72.64;100407.28;5014343;28;67933;-33
2022/08/20 09:45:57;;;;;;;;;;;;;;;31.69;71.10;100412.38;5016810;28;70690;-34
2022/08/20 09:48:32;;;;;;;;;;;;;;;31.68;72.04;100421.59;5015620;28;43473;-33
2022/08/20 09:51:04;;;;;;;;;;;;;;;31.70;71.66;100418.63;5013035;28;70665;-35
2022/08/20 09:53:36;;;;;;;;;;;;;;;31.67;71.34;100413.69;5011421;28;66242;-36
2022/08/20 09:56:09;;;;;;;;;;;;;;;31.66;71.99;100412.03;5012846;28;66402;-32
2022/08/20 09:58:41;;;;;;;;;;;;;;;31.69;73.26;100398.00;5016974;28;66441;-34
2022/08/20 10:01:16;;;;;;;;;;;;;;;31.74;73.88;100406.25;5016520;28;70524;-34
2022/08/20 10:03:49;;;;;;;;;;;;;;;31.85;73.43;100410.84;5016644;28;67335;-32
2022/08/20 10:06:21;;;;;;;;;;;;;;;31.96;72.05;100412.75;5059516;28;70668;-33
2022/08/20 10:08:53;;;;;;;;;;;;;;;32.07;71.32;100410.22;5082615;28;67366;-32
2022/08/20 10:11:25;;;;;;;;;;;;;;;32.14;70.95;100416.34;5080982;28;70303;-32
2022/08/20 10:13:59;;;;;;;;;;;;;;;32.19;70.73;100411.84;5080502;27;66524;-33
2022/08/20 10:16:32;;;;;;;;;;;;;;;32.25;70.30;100416.31;5081581;27;70684;-32
2022/08/20 10:19:04;;;;;;;;;;;;;;;32.29;69.84;100416.66;5071519;28;67043;-33
2022/08/20 10:21:36;;;;;;;;;;;;;;;32.33;69.57;100420.53;5079240;28;70816;-33
2022/08/20 10:24:09;;;;;;;;;;;;;;;32.35;69.33;100415.69;5061894;28;66219;-33
2022/08/20 10:26:42;;;;;;;;;;;;;;;32.38;69.28;100419.81;5079182;28;69990;-33
2022/08/20 10:29:14;;;;;;;;;;;;;;;32.40;69.09;100423.09;5080021;28;67341;-32
2022/08/20 10:31:47;;;;;;;;;;;;;;;32.41;68.61;100422.88;5077710;27;70910;-34
2022/08/20 10:34:19;;;;;;;;;;;;;;;32.41;68.72;100425.59;5077888;28;67097;-34
2022/08/20 10:36:52;;;;;;;;;;;;;;;32.42;68.74;100429.94;5079159;28;71030;-33
2022/08/20 10:39:24;;;;;;;;;;;;;;;32.46;68.68;100438.47;5062307;27;66773;-33
2022/08/20 10:42:01;;;;;;;;;;;;;;;32.46;68.52;100433.88;5079411;28;70897;-33
2022/08/20 10:44:33;;;;;;;;;;;;;;;32.47;68.52;100435.50;5080581;28;67423;-33
2022/08/20 10:47:16;;;;;;;;;;;;;;;32.48;68.28;100436.31;5075888;28;70798;-34
2022/08/20 10:49:50;;;;;;;;;;;;;;;32.48;68.06;100441.75;5079602;28;67281;-33
2022/08/20 10:52:22;;;;;;;;;;;;;;;32.50;68.20;100445.06;5078463;28;70729;-33
2022/08/20 10:54:55;;;;;;;;;;;;;;;32.51;67.96;100440.44;5076552;28;66749;-34
2022/08/20 10:57:28;;;;;;;;;;;;;;;32.51;67.70;100440.44;5077133;28;70770;-34
2022/08/20 11:00:00;;;;;;;;;;;;;;;32.52;67.92;100447.53;5042451;28;66974;-36
2022/08/20 11:02:33;;;;;;;;;;;;;;;32.53;67.66;100455.44;5079360;28;69871;-34
2022/08/20 11:05:06;;;;;;;;;;;;;;;32.53;67.66;100455.44;5079520;28;67198;-34
2022/08/20 11:07:39;;;;;;;;;;;;;;;32.53;67.45;100460.03;5077582;28;70893;-32
2022/08/20 11:10:30;;;;;;;;;;;;;;;32.52;67.76;100455.69;5078626;28;67029;-33
2022/08/20 11:13:03;;;;;;;;;;;;;;;32.51;67.88;100456.75;5077394;28;69326;-32
2022/08/20 11:15:37;;;;;;;;;;;;;;;32.49;68.50;100465.97;5078375;28;67180;-39
2022/08/20 11:18:11;;;;;;;;;;;;;;;32.41;69.21;100468.19;5075782;28;70941;-36
2022/08/20 11:20:44;;;;;;;;;;;;;;;32.28;67.88;100470.09;5056415;28;66002;-33
2022/08/20 11:23:16;;;;;;;;;;;;;;;32.17;65.63;100478.28;5056695;28;70009;-32
2022/08/20 11:25:48;;;;;;;;;;;;;;;32.00;63.09;100484.44;5075130;28;66666;-33
2022/08/20 11:28:21;;;;;;;;;;;;;;;31.87;61.24;100495.50;5078061;28;70730;-33
2022/08/20 11:31:01;;;;;;;;;;;;;;;31.74;59.42;100498.47;5077693;28;66185;-33
2022/08/20 11:33:33;;;;;;;;;;;;;;;31.60;57.84;100495.97;5075675;28;71630;-33
2022/08/20 11:36:06;;;;;;;;;;;;;;;31.56;58.33;100494.75;5077221;28;66642;-34
2022/08/20 11:38:38;;;;;;;;;;;;;;;31.54;57.27;100502.34;5078538;28;70346;-33
2022/08/20 11:41:10;;;;;;;;;;;;;;;31.35;56.52;100504.28;5078544;28;67227;-33
2022/08/20 11:43:42;;;;;;;;;;;;;;;31.28;55.14;100502.72;5078857;28;70528;-33
2022/08/20 11:46:34;;;;;;;;;;;;;;;31.19;54.65;100504.13;5074046;28;66082;-33
2022/08/20 11:49:07;;;;;;;;;;;;;;;31.09;53.33;100507.38;5073238;28;70813;-33
2022/08/20 11:51:39;;;;;;;;;;;;;;;30.98;51.98;100511.72;5076573;27;66552;-33
2022/08/20 11:54:19;;;;;;;;;;;;;;;30.89;51.10;100507.66;5059695;28;70029;-34
2022/08/20 11:56:52;;;;;;;;;;;;;;;30.80;50.72;100517.16;5079185;28;67166;-33
2022/08/20 11:59:27;;;;;;;;;;;;;;;30.68;50.42;100515.19;5082732;28;70964;-33
2022/08/20 12:01:59;;;;;;;;;;;;;;;30.59;49.74;100515.72;5081287;28;66900;-33
2022/08/20 12:04:33;;;;;;;;;;;;;;;30.52;48.57;100504.16;5076191;28;70786;-34
2022/08/20 12:07:10;;;;;;;;;;;;;;;30.45;48.32;100506.91;5080864;28;67879;-33
2022/08/20 12:09:43;;;;;;;;;;;;;;;30.38;47.63;100508.91;5064542;28;70823;-32
2022/08/20 12:12:22;;;;;;;;;;;;;;;30.32;47.31;100512.50;5065595;28;66558;-32
2022/08/20 12:14:55;;;;;;;;;;;;;;;30.26;47.11;100516.94;5081788;28;70968;-32
2022/08/20 12:17:28;;;;;;;;;;;;;;;30.23;46.99;100520.91;5080807;28;68145;-32
2022/08/20 12:20:03;;;;;;;;;;;;;;;30.17;46.22;100519.09;5082789;28;70842;-33
2022/08/20 12:22:35;;;;;;;;;;;;;;;30.12;46.39;100510.81;5082742;28;67169;-31